MBS International Airport
KMBS : now visible

Airfield :











YOU CAN JOIN US ON...

 
LOGIN :

Register | Disclaimer

   EN    FR    IT 

 









Legend :    VFR   Marginal VFR   IFR   Intensive IFR   Very Intensive IFR
Visi :
Ceiling :
>= 8 km
>= 3000ft
5 to 8 km
1000 to 3000 ft
1500m to 5 km
500 to 1000 ft
800 to 1500m
200 to 500 ft
< 800m
< 200 ft
Symbols :   Thunderstorms  Fog  Heavy snow  Heavy precipitations  Wind > 20 kt







- Airport Elevation : 668 ft
- IATA code : MBS


KMBS - MBS International

CURRENT METAR :
  • 210453Z AUTO 20004KT 10SM CLR 20/16 A3014 RMK AO2 SLP204 T02000156 402830161

EXPIRED METARs :
  • 210353Z AUTO 00000KT 10SM CLR 20/15 A3014 RMK AO2 SLP205 T02000150
  • 210253Z AUTO 17005KT 10SM CLR 22/16 A3014 RMK AO2 SLP202 T02170156 56001

TAF KMBS
Valid from the 21 at 00:00 until the 22 at 00:00 UTC


202323Z 2100/2124 18005KT P6SM SKC
FM210800 18005KT P6SM BKN040
FM211300 20010KT P6SM SCT040
FM212200 23013KT P6SM VCSH BKN045 OVC100
No reported NOTAMs for that airfield.



MET'MAP, your aeronautical weather chart ! - Copyright ORBIFLY December 2007 - Disclaimer

ORBIFLY MET'MAP TEAM :

Programming & Development : Alexandra Zaïnal
Concept & Development : Baudouin d'Aumeries
Co-Development & Prog : Marc-Olivier Méhu
Technical & hardware support : Manuel Goepfert

Contact : metmap@orbifly.com




SOURCES & CREDITS :

   NOAA       Earth
Advisory